createdAt,value
2018-04-16T00:02:27.090Z,5.47
2018-04-16T00:04:56.231Z,6.27
2018-04-16T00:07:24.434Z,6.10
2018-04-16T00:09:52.803Z,5.93
2018-04-16T00:12:21.178Z,7.13
2018-04-16T00:14:49.410Z,6.13
2018-04-16T00:17:18.418Z,6.47
2018-04-16T00:19:47.387Z,6.83
2018-04-16T00:22:15.669Z,7.20
2018-04-16T00:24:43.998Z,7.27
2018-04-16T00:27:12.201Z,6.43
2018-04-16T00:29:40.428Z,6.20
2018-04-16T00:32:14.369Z,8.87
2018-04-16T00:34:49.847Z,6.63
2018-04-16T00:37:23.729Z,7.07
2018-04-16T00:39:57.791Z,8.03
2018-04-16T00:42:31.732Z,8.17
2018-04-16T00:45:05.987Z,7.47
2018-04-16T00:47:40.701Z,9.07
2018-04-16T00:50:14.664Z,8.37
2018-04-16T00:52:50.399Z,9.13
2018-04-16T00:55:25.141Z,9.47
2018-04-16T00:57:59.900Z,13.03
2018-04-16T01:00:45.952Z,8.90
2018-04-16T01:03:20.650Z,9.13
2018-04-16T01:05:54.612Z,12.17
2018-04-16T01:08:28.420Z,8.67
2018-04-16T01:11:02.388Z,9.40
2018-04-16T01:13:36.226Z,10.97
2018-04-16T01:16:10.219Z,11.80
2018-04-16T01:18:44.876Z,16.07
2018-04-16T01:21:24.393Z,10.27
2018-04-16T01:24:13.234Z,9.97
2018-04-16T01:26:50.638Z,9.90
2018-04-16T01:32:31.463Z,11.80
2018-04-16T01:35:06.123Z,11.73
2018-04-16T01:37:46.627Z,10.87
2018-04-16T01:40:20.632Z,11.23
2018-04-16T01:42:55.387Z,12.73
2018-04-16T01:45:29.439Z,13.53
2018-04-16T01:48:03.396Z,12.30
2018-04-16T01:50:37.639Z,13.60
2018-04-16T01:53:11.505Z,14.43
2018-04-16T01:55:45.301Z,12.57
2018-04-16T01:58:19.419Z,15.07
2018-04-16T02:00:53.505Z,13.50
2018-04-16T02:03:27.470Z,15.30
2018-04-16T02:06:04.404Z,15.53
2018-04-16T02:08:38.527Z,13.43
2018-04-16T02:11:12.534Z,12.23
2018-04-16T02:13:46.445Z,11.40
2018-04-16T02:16:20.480Z,13.37
2018-04-16T02:18:54.461Z,13.10
2018-04-16T02:21:28.488Z,14.63
2018-04-16T02:24:02.425Z,14.03
2018-04-16T02:26:37.208Z,14.03
2018-04-16T02:29:11.110Z,12.80
2018-04-16T02:31:45.048Z,11.53
2018-04-16T02:34:19.195Z,13.97
2018-04-16T02:36:53.812Z,12.93
2018-04-16T02:39:27.665Z,12.47
2018-04-16T02:42:01.562Z,14.57
2018-04-16T02:44:35.958Z,11.17
2018-04-16T02:47:09.815Z,11.77
2018-04-16T02:49:44.058Z,15.27
2018-04-16T02:52:17.993Z,11.37
2018-04-16T02:54:52.035Z,11.70
2018-04-16T02:57:26.821Z,11.93
2018-04-16T03:00:01.614Z,10.90
2018-04-16T03:02:35.606Z,10.47
2018-04-16T03:05:09.534Z,10.30
2018-04-16T03:07:43.487Z,12.43
2018-04-16T03:10:17.521Z,13.00
2018-04-16T03:12:52.521Z,10.00
2018-04-16T03:15:26.331Z,11.83
2018-04-16T03:18:00.336Z,12.80
2018-04-16T03:20:34.321Z,10.80
2018-04-16T03:23:08.483Z,10.97
2018-04-16T03:25:42.425Z,9.57
2018-04-16T03:28:17.112Z,10.37
2018-04-16T03:30:51.891Z,12.27
2018-04-16T03:33:27.155Z,13.60
2018-04-16T03:36:02.486Z,10.80
2018-04-16T03:38:36.470Z,13.43
2018-04-16T03:41:22.036Z,14.33
2018-04-16T03:43:56.603Z,10.03
2018-04-16T03:46:31.338Z,11.23
2018-04-16T03:49:05.968Z,15.80
2018-04-16T03:51:42.731Z,10.70
2018-04-16T03:54:11.825Z,14.40
2018-04-16T03:56:40.840Z,14.80
2018-04-16T03:59:09.479Z,11.67
2018-04-16T04:01:37.809Z,12.60
2018-04-16T04:04:06.035Z,10.70
2018-04-16T04:06:34.234Z,10.27
2018-04-16T04:09:02.550Z,13.03
2018-04-16T04:11:31.709Z,10.70
2018-04-16T04:14:00.877Z,11.03
2018-04-16T04:16:29.176Z,13.07
2018-04-16T04:18:57.418Z,10.13
2018-04-16T04:21:25.684Z,10.80
2018-04-16T04:24:05.864Z,10.73
2018-04-16T04:26:45.991Z,13.07
2018-04-16T04:29:26.221Z,9.97
2018-04-16T04:31:54.498Z,13.43
2018-04-16T04:34:23.492Z,16.27
2018-04-16T04:36:52.519Z,13.70
2018-04-16T04:39:20.793Z,12.57
2018-04-16T04:41:48.982Z,10.17
2018-04-16T04:44:17.208Z,12.77
2018-04-16T04:46:45.530Z,10.00
2018-04-16T04:49:13.745Z,8.87
2018-04-16T04:51:43.491Z,17.00
2018-04-16T04:54:13.333Z,9.10
2018-04-16T04:56:42.331Z,8.77
2018-04-16T04:59:10.650Z,9.90
2018-04-16T05:01:39.956Z,9.43
2018-04-16T05:04:08.313Z,9.97
2018-04-16T05:06:36.640Z,14.47
2018-04-16T05:09:04.858Z,11.03
2018-04-16T05:11:33.065Z,9.67
2018-04-16T05:16:38.522Z,12.73
2018-04-16T05:19:06.923Z,9.93
2018-04-16T05:21:36.119Z,10.03
2018-04-16T05:24:04.322Z,10.67
2018-04-16T05:26:33.295Z,10.60
2018-04-16T05:29:02.005Z,15.50
2018-04-16T05:31:30.319Z,16.80
2018-04-16T05:33:58.647Z,18.23
2018-04-16T05:36:27.700Z,21.63
2018-04-16T05:38:56.068Z,24.57
2018-04-16T05:41:24.249Z,14.43
2018-04-16T05:43:52.464Z,18.93
2018-04-16T05:46:21.053Z,22.73
2018-04-16T05:48:49.266Z,19.37
2018-04-16T05:51:17.539Z,20.37
2018-04-16T05:53:45.810Z,23.53
2018-04-16T05:56:14.027Z,21.57
2018-04-16T05:58:42.275Z,19.87
2018-04-16T06:01:10.491Z,18.53
2018-04-16T06:03:38.768Z,19.27
2018-04-16T06:06:07.172Z,18.20
2018-04-16T06:08:35.631Z,12.77
2018-04-16T06:11:03.900Z,17.63
2018-04-16T06:13:32.277Z,18.03
2018-04-16T06:16:00.482Z,16.40
2018-04-16T06:18:29.037Z,15.40
2018-04-16T06:20:57.273Z,17.20
2018-04-16T06:23:25.554Z,16.17
2018-04-16T06:25:54.083Z,18.90
2018-04-16T06:28:22.318Z,17.00
2018-04-16T06:30:50.580Z,29.70
2018-04-16T06:33:19.830Z,21.30
2018-04-16T06:35:48.251Z,18.33
2018-04-16T06:38:17.271Z,15.97
2018-04-16T06:40:46.311Z,19.43
2018-04-16T06:43:14.605Z,20.17
2018-04-16T06:45:42.823Z,19.87
2018-04-16T06:48:11.828Z,22.53
2018-04-16T06:50:40.227Z,19.20
2018-04-16T06:53:08.513Z,18.77
2018-04-16T06:55:37.717Z,24.30
2018-04-16T06:58:05.915Z,17.77
2018-04-16T07:00:34.165Z,12.43
2018-04-16T07:03:02.690Z,17.20
2018-04-16T07:05:31.686Z,19.47
2018-04-16T07:07:59.957Z,17.40
2018-04-16T07:10:28.739Z,18.07
2018-04-16T07:12:57.811Z,15.87
2018-04-16T07:15:26.195Z,13.87
2018-04-16T07:17:54.547Z,19.40
2018-04-16T07:20:22.886Z,18.80
2018-04-16T07:22:51.192Z,16.90
2018-04-16T07:25:19.435Z,18.30
2018-04-16T07:27:47.756Z,19.25
2018-04-16T07:30:15.980Z,18.00
2018-04-16T07:32:44.188Z,11.40
2018-04-16T07:35:13.425Z,16.93
2018-04-16T07:37:41.699Z,15.57
2018-04-16T07:40:10.062Z,15.63
2018-04-16T07:42:38.292Z,16.43
2018-04-16T07:45:07.378Z,15.87
2018-04-16T07:47:35.751Z,18.93
2018-04-16T07:50:04.025Z,15.63
2018-04-16T07:52:32.873Z,19.50
2018-04-16T07:55:01.115Z,21.53
2018-04-16T07:57:29.510Z,15.03
2018-04-16T07:59:58.671Z,19.97
2018-04-16T08:02:26.932Z,15.47
2018-04-16T08:04:55.280Z,17.63
2018-04-16T08:07:23.582Z,16.00
2018-04-16T08:09:51.955Z,16.67
2018-04-16T08:12:20.326Z,18.40
2018-04-16T08:14:48.589Z,17.40
2018-04-16T08:17:17.758Z,19.50
2018-04-16T08:19:46.069Z,16.93
2018-04-16T08:22:15.102Z,16.97
2018-04-16T08:24:43.388Z,16.90
2018-04-16T08:27:11.785Z,13.17
2018-04-16T08:29:40.159Z,14.67
2018-04-16T08:32:08.498Z,14.27
2018-04-16T08:34:36.728Z,21.33
2018-04-16T08:37:06.517Z,18.73
2018-04-16T08:39:35.619Z,15.97
2018-04-16T08:42:04.958Z,14.33
2018-04-16T08:44:33.320Z,15.30
2018-04-16T08:47:01.676Z,14.93
2018-04-16T08:49:29.943Z,15.93
2018-04-16T08:51:58.195Z,18.57
2018-04-16T08:54:27.240Z,18.00
2018-04-16T08:56:55.575Z,16.70
2018-04-16T08:59:24.541Z,14.57
2018-04-16T09:01:53.788Z,13.93
2018-04-16T09:04:22.039Z,18.83
2018-04-16T09:06:51.016Z,14.53
2018-04-16T09:09:19.300Z,12.70
2018-04-16T09:11:48.320Z,16.40
2018-04-16T09:14:18.086Z,13.93
2018-04-16T09:16:46.284Z,15.77
2018-04-16T09:19:14.567Z,12.80
2018-04-16T09:21:43.020Z,14.87
2018-04-16T09:24:11.360Z,18.33
2018-04-16T09:26:39.680Z,18.93
2018-04-16T09:29:08.036Z,13.03
2018-04-16T09:31:36.346Z,12.80
2018-04-16T09:34:04.613Z,18.60
2018-04-16T09:36:33.808Z,17.77
2018-04-16T09:39:02.078Z,13.47
2018-04-16T09:41:30.339Z,18.73
2018-04-16T09:43:58.736Z,15.50
2018-04-16T09:46:27.119Z,19.93
2018-04-16T09:48:55.342Z,18.37
2018-04-16T09:51:23.774Z,19.53
2018-04-16T09:53:52.024Z,18.57
2018-04-16T09:56:20.432Z,16.40
2018-04-16T09:58:48.813Z,12.37
2018-04-16T10:01:22.715Z,20.13
2018-04-16T10:03:50.995Z,13.87
2018-04-16T10:06:19.236Z,14.37
2018-04-16T10:08:47.512Z,15.43
2018-04-16T10:11:16.536Z,14.97
2018-04-16T10:13:45.639Z,14.37
2018-04-16T10:16:13.880Z,14.00
2018-04-16T10:18:43.123Z,17.97
2018-04-16T10:21:16.918Z,15.47
2018-04-16T10:23:46.613Z,13.13
2018-04-16T10:26:14.874Z,13.57
2018-04-16T10:28:43.144Z,13.57
2018-04-16T10:31:13.316Z,15.73
2018-04-16T10:33:41.694Z,11.90
2018-04-16T10:36:10.091Z,14.37
2018-04-16T10:38:38.357Z,11.40
2018-04-16T10:41:06.607Z,12.23
2018-04-16T10:43:35.247Z,14.40
2018-04-16T10:46:04.365Z,14.90
2018-04-16T10:48:32.705Z,13.30
2018-04-16T10:51:00.954Z,16.30
2018-04-16T10:53:29.209Z,15.10
2018-04-16T10:55:57.533Z,8.40
2018-04-16T10:58:25.764Z,13.57
2018-04-16T11:00:54.757Z,11.40
2018-04-16T11:03:23.033Z,14.17
2018-04-16T11:05:52.548Z,15.10
2018-04-16T11:08:21.493Z,17.23
2018-04-16T11:10:49.764Z,15.07
2018-04-16T11:13:17.985Z,13.67
2018-04-16T11:15:46.407Z,11.87
2018-04-16T11:18:14.627Z,9.70
2018-04-16T11:20:42.965Z,11.57
2018-04-16T11:23:11.218Z,11.30
2018-04-16T11:25:39.517Z,8.83
2018-04-16T11:28:07.726Z,9.23
2018-04-16T11:30:36.748Z,10.07
2018-04-16T11:33:05.896Z,11.27
2018-04-16T11:35:34.266Z,7.83
2018-04-16T11:38:02.549Z,10.60
2018-04-16T11:40:31.762Z,13.43
2018-04-16T11:43:00.219Z,11.53
2018-04-16T11:45:28.714Z,12.40
2018-04-16T11:47:57.912Z,11.93
2018-04-16T11:50:26.115Z,9.13
2018-04-16T11:52:54.355Z,8.20
2018-04-16T11:55:22.660Z,11.87
2018-04-16T11:57:50.955Z,15.13
2018-04-16T12:00:20.016Z,9.90
2018-04-16T12:02:48.425Z,8.53
2018-04-16T12:05:16.786Z,7.97
2018-04-16T12:07:45.097Z,12.97
2018-04-16T12:10:14.103Z,14.43
2018-04-16T12:12:44.265Z,11.93
2018-04-16T12:15:12.549Z,12.17
2018-04-16T12:17:40.888Z,12.50
2018-04-16T12:20:10.454Z,8.37
2018-04-16T12:22:38.647Z,11.90
2018-04-16T12:25:06.861Z,9.10
2018-04-16T12:27:35.083Z,9.77
2018-04-16T12:30:04.230Z,10.47
2018-04-16T12:32:32.470Z,7.53
2018-04-16T12:35:00.642Z,7.20
2018-04-16T12:37:29.058Z,9.33
2018-04-16T12:39:58.403Z,10.97
2018-04-16T12:42:26.687Z,9.77
2018-04-16T12:44:54.931Z,7.33
2018-04-16T12:47:23.243Z,7.80
2018-04-16T12:49:51.479Z,7.53
2018-04-16T12:52:20.500Z,5.90
2018-04-16T12:54:48.733Z,8.70
2018-04-16T12:57:17.920Z,10.60
2018-04-16T12:59:46.171Z,8.63
2018-04-16T13:02:14.427Z,12.03
2018-04-16T13:04:42.941Z,6.77
2018-04-16T13:07:11.181Z,6.97
2018-04-16T13:09:39.457Z,6.70
2018-04-16T13:12:07.637Z,10.90
2018-04-16T13:14:35.881Z,7.97
2018-04-16T13:17:04.883Z,9.17
2018-04-16T13:19:33.167Z,8.10
2018-04-16T13:22:01.464Z,8.90
2018-04-16T13:24:29.779Z,8.67
2018-04-16T13:26:58.000Z,8.70
2018-04-16T13:29:26.978Z,11.40
2018-04-16T13:31:55.320Z,8.10
2018-04-16T13:34:23.566Z,9.40
2018-04-16T13:36:52.056Z,9.97
2018-04-16T13:39:21.082Z,11.37
2018-04-16T13:41:49.505Z,8.20
2018-04-16T13:44:18.491Z,9.30
2018-04-16T13:46:47.488Z,9.10
2018-04-16T13:49:16.518Z,8.60
2018-04-16T13:51:44.746Z,8.37
2018-04-16T13:54:13.812Z,12.10
2018-04-16T13:56:42.195Z,12.67
2018-04-16T13:59:10.429Z,13.47
2018-04-16T14:01:39.597Z,12.57
2018-04-16T14:04:08.582Z,17.10
2018-04-16T14:06:36.993Z,19.60
2018-04-16T14:09:06.073Z,15.53
2018-04-16T14:11:35.115Z,14.83
2018-04-16T14:14:03.427Z,13.73
2018-04-16T14:16:31.670Z,14.63
2018-04-16T14:18:59.943Z,20.60
2018-04-16T14:21:28.202Z,17.43
2018-04-16T14:23:57.227Z,14.30
2018-04-16T14:26:25.435Z,12.03
2018-04-16T14:28:53.809Z,13.20
2018-04-16T14:31:22.295Z,18.67
2018-04-16T14:33:50.493Z,12.40
2018-04-16T14:36:18.773Z,15.77
2018-04-16T14:38:47.214Z,23.33
2018-04-16T14:41:15.455Z,15.53
2018-04-16T14:43:43.893Z,17.60
2018-04-16T14:46:12.326Z,14.03
2018-04-16T14:48:40.599Z,16.17
2018-04-16T14:51:10.070Z,16.47
2018-04-16T14:53:39.136Z,18.27
2018-04-16T14:56:07.399Z,16.43
2018-04-16T14:58:35.940Z,20.13
2018-04-16T15:01:05.077Z,20.37
2018-04-16T15:03:33.399Z,20.10
2018-04-16T15:06:03.228Z,20.73
2018-04-16T15:08:32.395Z,19.80
2018-04-16T15:11:00.614Z,21.80
2018-04-16T15:13:29.576Z,18.13
2018-04-16T15:15:57.846Z,17.97
2018-04-16T15:18:27.035Z,13.17
2018-04-16T15:20:56.824Z,22.37
2018-04-16T15:23:25.796Z,13.47
2018-04-16T15:25:54.285Z,17.57
2018-04-16T15:28:22.522Z,17.07
2018-04-16T15:30:52.366Z,18.40
2018-04-16T15:33:20.706Z,20.87
2018-04-16T15:35:49.904Z,20.07
2018-04-16T15:38:18.175Z,20.10
2018-04-16T15:40:46.395Z,24.07
2018-04-16T15:43:15.410Z,23.07
2018-04-16T15:45:43.684Z,12.43
2018-04-16T15:48:12.678Z,19.53
2018-04-16T15:50:40.998Z,16.67
2018-04-16T15:53:09.216Z,17.10
2018-04-16T15:55:38.278Z,14.67
2018-04-16T15:58:06.675Z,14.97
2018-04-16T16:00:36.438Z,15.07
2018-04-16T16:03:04.749Z,18.87
2018-04-16T16:05:34.251Z,14.73
2018-04-16T16:08:02.667Z,13.37
2018-04-16T16:10:32.370Z,16.73
2018-04-16T16:13:00.751Z,16.07
2018-04-16T16:15:29.203Z,13.37
2018-04-16T16:17:57.469Z,13.33
2018-04-16T16:20:26.499Z,9.80
2018-04-16T16:22:55.616Z,12.80
2018-04-16T16:25:23.886Z,13.43
2018-04-16T16:27:52.868Z,15.80
2018-04-16T16:30:21.093Z,10.70
2018-04-16T16:32:50.102Z,11.47
2018-04-16T16:35:18.476Z,12.50
2018-04-16T16:37:46.778Z,10.23
2018-04-16T16:40:14.999Z,11.10
2018-04-16T16:42:43.457Z,13.80
2018-04-16T16:45:11.700Z,18.73
2018-04-16T16:47:39.970Z,11.20
2018-04-16T16:50:08.831Z,14.87
2018-04-16T16:52:39.576Z,16.77
2018-04-16T16:55:08.566Z,12.20
2018-04-16T16:57:36.872Z,13.20
2018-04-16T17:00:05.306Z,14.90
2018-04-16T17:02:33.644Z,17.30
2018-04-16T17:05:01.998Z,11.93
2018-04-16T17:07:30.281Z,14.37
2018-04-16T17:09:59.305Z,14.67
2018-04-16T17:12:27.807Z,15.60
2018-04-16T17:14:56.166Z,12.97
2018-04-16T17:17:24.450Z,13.27
2018-04-16T17:19:53.423Z,11.87
2018-04-16T17:22:22.413Z,19.27
2018-04-16T17:24:51.339Z,12.50
2018-04-16T17:27:19.558Z,11.37
2018-04-16T17:29:47.893Z,10.43
2018-04-16T17:32:16.180Z,8.30
2018-04-16T17:34:44.579Z,7.87
2018-04-16T17:37:13.747Z,11.03
2018-04-16T17:39:42.138Z,16.07
2018-04-16T17:42:10.419Z,18.73
2018-04-16T17:44:38.890Z,14.70
2018-04-16T17:47:07.122Z,9.93
2018-04-16T17:49:36.174Z,17.07
2018-04-16T17:52:04.450Z,10.80
2018-04-16T17:54:32.850Z,15.53
2018-04-16T17:57:01.203Z,17.53
2018-04-16T17:59:29.597Z,10.63
2018-04-16T18:01:57.958Z,13.10
2018-04-16T18:04:26.793Z,15.73
2018-04-16T18:06:56.184Z,12.63
2018-04-16T18:09:25.202Z,13.80
2018-04-16T18:11:54.330Z,19.00
2018-04-16T18:14:22.538Z,19.87
2018-04-16T18:16:50.774Z,18.03
2018-04-16T18:19:20.386Z,15.67
2018-04-16T18:21:49.868Z,14.13
2018-04-16T18:24:18.202Z,17.57
2018-04-16T18:26:46.657Z,15.43
2018-04-16T18:29:14.912Z,12.33
2018-04-16T18:31:43.990Z,13.63
2018-04-16T18:34:13.793Z,16.33
2018-04-16T18:36:42.922Z,13.13
2018-04-16T18:39:12.896Z,13.67
2018-04-16T18:41:41.982Z,12.90
2018-04-16T18:44:11.526Z,16.13
2018-04-16T18:46:39.748Z,11.80
2018-04-16T18:49:07.974Z,12.33
2018-04-16T18:51:36.533Z,12.00
2018-04-16T18:54:05.424Z,12.00
2018-04-16T18:56:33.638Z,11.47
2018-04-16T18:59:02.918Z,9.43
2018-04-16T19:01:31.390Z,8.17
2018-04-16T19:03:59.614Z,14.17
2018-04-16T19:06:27.978Z,10.03
2018-04-16T19:08:56.317Z,14.13
2018-04-16T19:11:24.950Z,8.57
2018-04-16T19:13:53.972Z,8.47
2018-04-16T19:16:22.413Z,10.13
2018-04-16T19:18:50.657Z,7.30
2018-04-16T19:21:25.036Z,12.80
2018-04-16T19:23:54.071Z,10.90
2018-04-16T19:26:22.357Z,11.53
2018-04-16T19:28:50.595Z,10.20
2018-04-16T19:31:19.768Z,7.77
2018-04-16T19:33:53.805Z,12.00
2018-04-16T19:36:22.235Z,9.03
2018-04-16T19:38:50.471Z,9.67
2018-04-16T19:41:18.736Z,9.20
2018-04-16T19:43:47.835Z,13.47
2018-04-16T19:46:16.118Z,13.10
2018-04-16T19:48:49.920Z,10.57
2018-04-16T19:51:18.357Z,7.83
2018-04-16T19:53:46.741Z,9.43
2018-04-16T19:58:57.718Z,8.87
2018-04-16T20:01:25.948Z,11.17
2018-04-16T20:04:00.161Z,7.83
2018-04-16T20:06:29.414Z,10.30
2018-04-16T20:08:58.453Z,12.20
2018-04-16T20:11:30.401Z,11.20
2018-04-16T20:14:04.776Z,9.73
2018-04-16T20:16:33.163Z,14.70
2018-04-16T20:19:01.395Z,11.70
2018-04-16T20:21:30.376Z,11.40
2018-04-16T20:23:58.814Z,12.17
2018-04-16T20:26:27.624Z,9.90
2018-04-16T20:28:56.152Z,10.70
2018-04-16T20:31:24.414Z,15.17
2018-04-16T20:33:52.711Z,17.03
2018-04-16T20:36:20.930Z,10.93
2018-04-16T20:38:49.210Z,11.27
2018-04-16T20:41:17.449Z,16.23
2018-04-16T20:43:45.763Z,8.40
2018-04-16T20:46:14.243Z,11.33
2018-04-16T20:48:42.530Z,8.13
2018-04-16T20:51:10.810Z,11.97
2018-04-16T20:53:39.290Z,12.70
2018-04-16T20:56:07.712Z,12.77
2018-04-16T20:58:36.046Z,11.00
2018-04-16T21:01:04.244Z,13.17
2018-04-16T21:03:32.465Z,14.10
2018-04-16T21:06:01.485Z,10.23
2018-04-16T21:08:29.750Z,10.73
2018-04-16T21:10:58.749Z,15.47
2018-04-16T21:13:27.454Z,16.97
2018-04-16T21:15:57.046Z,13.57
2018-04-16T21:18:25.469Z,16.50
2018-04-16T21:20:54.300Z,12.13
2018-04-16T21:23:23.031Z,10.97
2018-04-16T21:25:51.324Z,13.07
2018-04-16T21:28:20.079Z,11.40
2018-04-16T21:30:48.794Z,12.97
2018-04-16T21:33:17.163Z,14.37
2018-04-16T21:35:45.552Z,15.57
2018-04-16T21:38:14.762Z,17.30
2018-04-16T21:40:42.988Z,12.47
2018-04-16T21:43:12.005Z,17.03
2018-04-16T21:45:40.390Z,15.43
2018-04-16T21:48:08.588Z,17.60
2018-04-16T21:50:37.624Z,15.00
2018-04-16T21:53:07.568Z,12.73
2018-04-16T21:55:36.855Z,28.40
2018-04-16T21:58:05.091Z,15.17
2018-04-16T22:00:33.413Z,17.57
2018-04-16T22:03:01.654Z,13.67
2018-04-16T22:05:30.719Z,12.63
2018-04-16T22:07:59.095Z,11.63
2018-04-16T22:10:28.221Z,17.03
2018-04-16T22:12:56.609Z,14.90
2018-04-16T22:15:25.151Z,17.03
2018-04-16T22:17:53.518Z,20.80
2018-04-16T22:20:21.753Z,15.17
2018-04-16T22:22:50.017Z,15.27
2018-04-16T22:25:18.681Z,14.93
2018-04-16T22:27:46.885Z,21.03
2018-04-16T22:30:15.905Z,16.87
2018-04-16T22:32:44.891Z,15.37
2018-04-16T22:35:13.871Z,17.53
2018-04-16T22:37:42.141Z,23.83
2018-04-16T22:40:10.342Z,25.20
2018-04-16T22:42:38.577Z,18.03
2018-04-16T22:45:06.818Z,20.47
2018-04-16T22:47:35.108Z,21.40
2018-04-16T22:50:03.536Z,23.13
2018-04-16T22:52:31.709Z,17.37
2018-04-16T22:54:59.941Z,19.77
2018-04-16T22:57:28.163Z,21.23
2018-04-16T22:59:57.943Z,19.23
2018-04-16T23:02:26.455Z,22.80
2018-04-16T23:04:54.661Z,21.77
2018-04-16T23:07:22.997Z,18.97
2018-04-16T23:09:51.575Z,15.10
2018-04-16T23:12:19.860Z,17.40
2018-04-16T23:14:48.085Z,15.30
2018-04-16T23:17:17.053Z,16.03
2018-04-16T23:19:45.252Z,17.33
2018-04-16T23:22:15.153Z,19.80
2018-04-16T23:24:43.391Z,15.30
2018-04-16T23:27:13.198Z,20.57
2018-04-16T23:29:42.163Z,18.60
2018-04-16T23:32:10.401Z,22.50
2018-04-16T23:34:38.637Z,29.53
2018-04-16T23:37:06.859Z,24.60
2018-04-16T23:39:37.928Z,28.43
2018-04-16T23:42:06.191Z,19.17
2018-04-16T23:44:35.454Z,21.20
2018-04-16T23:47:03.738Z,26.10
2018-04-16T23:49:32.030Z,19.57
2018-04-16T23:52:02.828Z,22.03
2018-04-16T23:54:33.091Z,27.73
2018-04-16T23:57:01.331Z,23.97
2018-04-16T23:59:30.244Z,26.90
